sensor_id;sensor_type;location;lat;lon;timestamp;P1;durP1;ratioP1;P2;durP2;ratioP2
36221;SDS011;22266;52.340;4.962;2023-08-06T00:00:29;10.33;;;9.00;;
36221;SDS011;22266;52.340;4.962;2023-08-06T00:02:56;6.33;;;6.33;;
36221;SDS011;22266;52.340;4.962;2023-08-06T00:05:22;11.00;;;11.00;;
36221;SDS011;22266;52.340;4.962;2023-08-06T00:07:49;13.00;;;11.67;;
36221;SDS011;22266;52.340;4.962;2023-08-06T00:10:16;11.00;;;11.00;;
36221;SDS011;22266;52.340;4.962;2023-08-06T00:12:43;16.67;;;14.33;;
36221;SDS011;22266;52.340;4.962;2023-08-06T00:15:10;14.67;;;13.00;;
36221;SDS011;22266;52.340;4.962;2023-08-06T00:17:37;10.67;;;8.33;;
36221;SDS011;22266;52.340;4.962;2023-08-06T00:20:04;10.00;;;10.00;;
36221;SDS011;22266;52.340;4.962;2023-08-06T00:22:33;9.67;;;9.33;;
36221;SDS011;22266;52.340;4.962;2023-08-06T00:25:01;12.00;;;10.00;;
36221;SDS011;22266;52.340;4.962;2023-08-06T00:27:28;8.67;;;7.33;;
36221;SDS011;22266;52.340;4.962;2023-08-06T00:29:54;9.00;;;8.67;;
36221;SDS011;22266;52.340;4.962;2023-08-06T00:32:21;10.00;;;10.00;;
36221;SDS011;22266;52.340;4.962;2023-08-06T00:34:48;11.00;;;10.00;;
36221;SDS011;22266;52.340;4.962;2023-08-06T00:37:18;9.00;;;9.00;;
36221;SDS011;22266;52.340;4.962;2023-08-06T00:39:44;8.33;;;8.33;;
36221;SDS011;22266;52.340;4.962;2023-08-06T00:42:11;8.00;;;7.67;;
36221;SDS011;22266;52.340;4.962;2023-08-06T00:44:38;7.33;;;5.33;;
36221;SDS011;22266;52.340;4.962;2023-08-06T00:47:07;7.67;;;7.67;;
36221;SDS011;22266;52.340;4.962;2023-08-06T00:49:35;8.00;;;7.67;;
36221;SDS011;22266;52.340;4.962;2023-08-06T00:52:03;6.00;;;6.00;;
36221;SDS011;22266;52.340;4.962;2023-08-06T00:54:31;3.00;;;3.00;;
36221;SDS011;22266;52.340;4.962;2023-08-06T00:56:58;7.00;;;5.75;;
36221;SDS011;22266;52.340;4.962;2023-08-06T00:59:28;6.00;;;4.67;;
36221;SDS011;22266;52.340;4.962;2023-08-06T01:01:56;4.67;;;4.67;;
36221;SDS011;22266;52.340;4.962;2023-08-06T01:04:22;5.00;;;5.00;;
36221;SDS011;22266;52.340;4.962;2023-08-06T01:06:59;6.33;;;6.33;;
36221;SDS011;22266;52.340;4.962;2023-08-06T01:09:54;3.00;;;3.00;;
36221;SDS011;22266;52.340;4.962;2023-08-06T01:12:35;4.33;;;3.00;;
36221;SDS011;22266;52.340;4.962;2023-08-06T01:15:14;5.00;;;5.00;;
36221;SDS011;22266;52.340;4.962;2023-08-06T01:17:45;5.00;;;5.00;;
36221;SDS011;22266;52.340;4.962;2023-08-06T01:20:12;6.00;;;5.00;;
36221;SDS011;22266;52.340;4.962;2023-08-06T01:22:39;6.00;;;3.00;;
36221;SDS011;22266;52.340;4.962;2023-08-06T01:25:05;4.25;;;4.25;;
36221;SDS011;22266;52.340;4.962;2023-08-06T01:27:37;7.67;;;7.67;;
36221;SDS011;22266;52.340;4.962;2023-08-06T01:30:12;9.00;;;9.00;;
36221;SDS011;22266;52.340;4.962;2023-08-06T01:32:43;6.67;;;6.67;;
36221;SDS011;22266;52.340;4.962;2023-08-06T01:35:14;6.00;;;6.00;;
36221;SDS011;22266;52.340;4.962;2023-08-06T01:37:43;5.33;;;5.33;;
36221;SDS011;22266;52.340;4.962;2023-08-06T01:40:10;5.00;;;5.00;;
36221;SDS011;22266;52.340;4.962;2023-08-06T01:42:38;6.00;;;5.75;;
36221;SDS011;22266;52.340;4.962;2023-08-06T01:45:07;6.00;;;6.00;;
36221;SDS011;22266;52.340;4.962;2023-08-06T01:47:34;6.00;;;5.00;;
36221;SDS011;22266;52.340;4.962;2023-08-06T01:50:01;4.00;;;4.00;;
36221;SDS011;22266;52.340;4.962;2023-08-06T01:52:28;5.00;;;5.00;;
36221;SDS011;22266;52.340;4.962;2023-08-06T01:54:55;6.50;;;5.00;;
36221;SDS011;22266;52.340;4.962;2023-08-06T01:57:22;9.00;;;7.00;;
36221;SDS011;22266;52.340;4.962;2023-08-06T01:59:48;4.50;;;4.00;;
36221;SDS011;22266;52.340;4.962;2023-08-06T02:02:15;8.00;;;8.00;;
36221;SDS011;22266;52.340;4.962;2023-08-06T02:04:41;6.75;;;6.75;;
36221;SDS011;22266;52.340;4.962;2023-08-06T02:07:08;5.25;;;5.25;;
36221;SDS011;22266;52.340;4.962;2023-08-06T02:09:34;3.25;;;3.25;;
36221;SDS011;22266;52.340;4.962;2023-08-06T02:12:01;6.00;;;4.50;;
36221;SDS011;22266;52.340;4.962;2023-08-06T02:14:28;9.00;;;9.00;;
36221;SDS011;22266;52.340;4.962;2023-08-06T02:16:55;8.33;;;4.33;;
36221;SDS011;22266;52.340;4.962;2023-08-06T02:19:24;3.00;;;3.00;;
36221;SDS011;22266;52.340;4.962;2023-08-06T02:21:50;6.25;;;6.25;;
36221;SDS011;22266;52.340;4.962;2023-08-06T02:24:17;4.67;;;3.67;;
36221;SDS011;22266;52.340;4.962;2023-08-06T02:26:44;7.00;;;6.00;;
36221;SDS011;22266;52.340;4.962;2023-08-06T02:29:11;7.00;;;6.33;;
36221;SDS011;22266;52.340;4.962;2023-08-06T02:31:38;9.67;;;7.00;;
36221;SDS011;22266;52.340;4.962;2023-08-06T02:34:05;5.50;;;4.50;;
36221;SDS011;22266;52.340;4.962;2023-08-06T02:36:31;10.67;;;9.00;;
36221;SDS011;22266;52.340;4.962;2023-08-06T02:38:58;6.50;;;6.00;;
36221;SDS011;22266;52.340;4.962;2023-08-06T02:41:25;4.75;;;4.00;;
36221;SDS011;22266;52.340;4.962;2023-08-06T02:43:52;6.33;;;5.33;;
36221;SDS011;22266;52.340;4.962;2023-08-06T02:46:19;8.00;;;7.67;;
36221;SDS011;22266;52.340;4.962;2023-08-06T02:48:45;6.00;;;6.00;;
36221;SDS011;22266;52.340;4.962;2023-08-06T02:51:12;6.00;;;6.00;;
36221;SDS011;22266;52.340;4.962;2023-08-06T02:53:38;6.00;;;5.67;;
36221;SDS011;22266;52.340;4.962;2023-08-06T02:56:08;6.00;;;6.00;;
36221;SDS011;22266;52.340;4.962;2023-08-06T02:59:13;10.00;;;6.33;;
36221;SDS011;22266;52.340;4.962;2023-08-06T03:01:52;8.33;;;8.33;;
36221;SDS011;22266;52.340;4.962;2023-08-06T03:04:27;12.00;;;7.00;;
36221;SDS011;22266;52.340;4.962;2023-08-06T03:06:54;10.67;;;8.67;;
36221;SDS011;22266;52.340;4.962;2023-08-06T03:09:25;8.00;;;7.00;;
36221;SDS011;22266;52.340;4.962;2023-08-06T03:11:51;7.33;;;7.33;;
36221;SDS011;22266;52.340;4.962;2023-08-06T03:14:18;7.67;;;7.67;;
36221;SDS011;22266;52.340;4.962;2023-08-06T03:16:45;11.00;;;8.67;;
36221;SDS011;22266;52.340;4.962;2023-08-06T03:19:14;11.00;;;10.00;;
36221;SDS011;22266;52.340;4.962;2023-08-06T03:21:42;11.33;;;10.67;;
36221;SDS011;22266;52.340;4.962;2023-08-06T03:24:08;9.67;;;9.67;;
36221;SDS011;22266;52.340;4.962;2023-08-06T03:26:37;8.33;;;8.33;;
36221;SDS011;22266;52.340;4.962;2023-08-06T03:29:04;11.67;;;11.00;;
36221;SDS011;22266;52.340;4.962;2023-08-06T03:31:33;7.67;;;7.67;;
36221;SDS011;22266;52.340;4.962;2023-08-06T03:34:00;12.67;;;11.33;;
36221;SDS011;22266;52.340;4.962;2023-08-06T03:36:29;16.00;;;13.00;;
36221;SDS011;22266;52.340;4.962;2023-08-06T03:38:56;12.33;;;10.67;;
36221;SDS011;22266;52.340;4.962;2023-08-06T03:41:23;19.33;;;17.00;;
36221;SDS011;22266;52.340;4.962;2023-08-06T03:43:49;12.67;;;12.67;;
36221;SDS011;22266;52.340;4.962;2023-08-06T03:46:22;18.33;;;16.00;;
36221;SDS011;22266;52.340;4.962;2023-08-06T03:48:49;17.33;;;11.00;;
36221;SDS011;22266;52.340;4.962;2023-08-06T03:51:15;11.00;;;11.00;;
36221;SDS011;22266;52.340;4.962;2023-08-06T03:53:44;12.33;;;12.33;;
36221;SDS011;22266;52.340;4.962;2023-08-06T03:56:10;13.33;;;12.67;;
36221;SDS011;22266;52.340;4.962;2023-08-06T03:58:38;16.00;;;14.00;;
36221;SDS011;22266;52.340;4.962;2023-08-06T04:01:05;15.00;;;13.67;;
36221;SDS011;22266;52.340;4.962;2023-08-06T04:03:38;13.33;;;11.00;;
36221;SDS011;22266;52.340;4.962;2023-08-06T04:06:04;14.67;;;12.67;;
36221;SDS011;22266;52.340;4.962;2023-08-06T04:08:31;14.00;;;14.00;;
36221;SDS011;22266;52.340;4.962;2023-08-06T04:10:58;11.00;;;11.00;;
36221;SDS011;22266;52.340;4.962;2023-08-06T04:13:24;16.33;;;14.33;;
36221;SDS011;22266;52.340;4.962;2023-08-06T04:15:51;12.67;;;12.67;;
36221;SDS011;22266;52.340;4.962;2023-08-06T04:18:18;8.33;;;8.33;;
36221;SDS011;22266;52.340;4.962;2023-08-06T04:20:45;6.00;;;6.00;;
36221;SDS011;22266;52.340;4.962;2023-08-06T04:23:12;6.00;;;6.00;;
36221;SDS011;22266;52.340;4.962;2023-08-06T04:25:39;5.00;;;5.00;;
36221;SDS011;22266;52.340;4.962;2023-08-06T04:28:06;6.00;;;6.00;;
36221;SDS011;22266;52.340;4.962;2023-08-06T04:30:34;6.00;;;6.00;;
36221;SDS011;22266;52.340;4.962;2023-08-06T04:33:01;6.00;;;6.00;;
36221;SDS011;22266;52.340;4.962;2023-08-06T04:35:28;5.25;;;5.25;;
36221;SDS011;22266;52.340;4.962;2023-08-06T04:37:55;7.50;;;6.25;;
36221;SDS011;22266;52.340;4.962;2023-08-06T04:40:22;2.50;;;2.50;;
36221;SDS011;22266;52.340;4.962;2023-08-06T04:42:48;3.00;;;2.00;;
36221;SDS011;22266;52.340;4.962;2023-08-06T04:45:16;0.00;;;0.00;;
36221;SDS011;22266;52.340;4.962;2023-08-06T04:47:43;1.00;;;1.00;;
36221;SDS011;22266;52.340;4.962;2023-08-06T04:50:09;0.75;;;0.75;;
36221;SDS011;22266;52.340;4.962;2023-08-06T04:52:37;0.00;;;0.00;;
36221;SDS011;22266;52.340;4.962;2023-08-06T04:55:03;1.25;;;1.25;;
36221;SDS011;22266;52.340;4.962;2023-08-06T04:57:32;2.00;;;0.00;;
36221;SDS011;22266;52.340;4.962;2023-08-06T04:59:58;0.75;;;0.75;;
36221;SDS011;22266;52.340;4.962;2023-08-06T05:02:25;1.75;;;1.00;;
36221;SDS011;22266;52.340;4.962;2023-08-06T05:04:51;1.50;;;1.50;;
36221;SDS011;22266;52.340;4.962;2023-08-06T05:07:18;1.75;;;1.75;;
36221;SDS011;22266;52.340;4.962;2023-08-06T05:09:45;1.50;;;1.50;;
36221;SDS011;22266;52.340;4.962;2023-08-06T05:12:11;2.00;;;2.00;;
36221;SDS011;22266;52.340;4.962;2023-08-06T05:14:37;3.00;;;3.00;;
36221;SDS011;22266;52.340;4.962;2023-08-06T05:17:04;3.00;;;3.00;;
36221;SDS011;22266;52.340;4.962;2023-08-06T05:19:31;6.00;;;6.00;;
36221;SDS011;22266;52.340;4.962;2023-08-06T05:21:57;6.67;;;4.67;;
36221;SDS011;22266;52.340;4.962;2023-08-06T05:24:24;4.00;;;4.00;;
36221;SDS011;22266;52.340;4.962;2023-08-06T05:26:50;4.67;;;4.33;;
36221;SDS011;22266;52.340;4.962;2023-08-06T05:29:17;6.00;;;6.00;;
36221;SDS011;22266;52.340;4.962;2023-08-06T05:31:43;2.67;;;2.67;;
36221;SDS011;22266;52.340;4.962;2023-08-06T05:34:10;6.00;;;6.00;;
36221;SDS011;22266;52.340;4.962;2023-08-06T05:36:36;6.33;;;6.33;;
36221;SDS011;22266;52.340;4.962;2023-08-06T05:39:03;7.00;;;5.00;;
36221;SDS011;22266;52.340;4.962;2023-08-06T05:41:29;6.00;;;4.67;;
36221;SDS011;22266;52.340;4.962;2023-08-06T05:43:56;6.00;;;3.67;;
36221;SDS011;22266;52.340;4.962;2023-08-06T05:46:22;6.00;;;6.00;;
36221;SDS011;22266;52.340;4.962;2023-08-06T05:48:50;6.33;;;6.33;;
36221;SDS011;22266;52.340;4.962;2023-08-06T05:51:17;8.00;;;6.33;;
36221;SDS011;22266;52.340;4.962;2023-08-06T05:53:44;6.67;;;6.67;;
36221;SDS011;22266;52.340;4.962;2023-08-06T05:56:12;5.67;;;5.67;;
36221;SDS011;22266;52.340;4.962;2023-08-06T05:58:38;3.00;;;3.00;;
36221;SDS011;22266;52.340;4.962;2023-08-06T06:01:05;7.00;;;6.33;;
36221;SDS011;22266;52.340;4.962;2023-08-06T06:03:32;3.00;;;2.67;;
36221;SDS011;22266;52.340;4.962;2023-08-06T06:05:59;6.00;;;5.00;;
36221;SDS011;22266;52.340;4.962;2023-08-06T06:08:27;5.33;;;5.33;;
36221;SDS011;22266;52.340;4.962;2023-08-06T06:10:53;5.00;;;3.00;;
36221;SDS011;22266;52.340;4.962;2023-08-06T06:13:20;4.00;;;4.00;;
36221;SDS011;22266;52.340;4.962;2023-08-06T06:15:46;8.33;;;5.67;;
36221;SDS011;22266;52.340;4.962;2023-08-06T06:18:13;6.00;;;6.00;;
36221;SDS011;22266;52.340;4.962;2023-08-06T06:20:40;7.00;;;6.00;;
36221;SDS011;22266;52.340;4.962;2023-08-06T06:23:06;7.33;;;6.00;;
36221;SDS011;22266;52.340;4.962;2023-08-06T06:25:33;7.67;;;7.67;;
36221;SDS011;22266;52.340;4.962;2023-08-06T06:27:59;5.33;;;5.33;;
36221;SDS011;22266;52.340;4.962;2023-08-06T06:30:26;6.00;;;6.00;;
36221;SDS011;22266;52.340;4.962;2023-08-06T06:32:52;8.00;;;7.00;;
36221;SDS011;22266;52.340;4.962;2023-08-06T06:35:19;3.00;;;3.00;;
36221;SDS011;22266;52.340;4.962;2023-08-06T06:37:45;5.00;;;5.00;;
36221;SDS011;22266;52.340;4.962;2023-08-06T06:40:12;4.33;;;4.33;;
36221;SDS011;22266;52.340;4.962;2023-08-06T06:42:38;4.67;;;4.67;;
36221;SDS011;22266;52.340;4.962;2023-08-06T06:45:07;6.00;;;3.00;;
36221;SDS011;22266;52.340;4.962;2023-08-06T06:47:34;4.00;;;2.67;;
36221;SDS011;22266;52.340;4.962;2023-08-06T06:50:01;3.00;;;3.00;;
36221;SDS011;22266;52.340;4.962;2023-08-06T06:52:29;2.33;;;2.33;;
36221;SDS011;22266;52.340;4.962;2023-08-06T06:54:55;2.00;;;2.00;;
36221;SDS011;22266;52.340;4.962;2023-08-06T06:57:22;6.00;;;3.67;;
36221;SDS011;22266;52.340;4.962;2023-08-06T06:59:48;3.00;;;3.00;;
36221;SDS011;22266;52.340;4.962;2023-08-06T07:02:15;2.00;;;2.00;;
36221;SDS011;22266;52.340;4.962;2023-08-06T07:04:41;3.33;;;3.33;;
36221;SDS011;22266;52.340;4.962;2023-08-06T07:07:08;3.33;;;3.33;;
36221;SDS011;22266;52.340;4.962;2023-08-06T07:09:34;4.00;;;4.00;;
36221;SDS011;22266;52.340;4.962;2023-08-06T07:12:01;3.33;;;2.00;;
36221;SDS011;22266;52.340;4.962;2023-08-06T07:14:28;9.00;;;7.33;;
36221;SDS011;22266;52.340;4.962;2023-08-06T07:16:54;3.00;;;3.00;;
36221;SDS011;22266;52.340;4.962;2023-08-06T07:19:21;2.33;;;2.33;;
36221;SDS011;22266;52.340;4.962;2023-08-06T07:21:48;7.00;;;5.67;;
36221;SDS011;22266;52.340;4.962;2023-08-06T07:24:14;5.33;;;5.33;;
36221;SDS011;22266;52.340;4.962;2023-08-06T07:26:41;3.67;;;3.67;;
36221;SDS011;22266;52.340;4.962;2023-08-06T07:29:07;4.67;;;4.67;;
36221;SDS011;22266;52.340;4.962;2023-08-06T07:31:34;6.00;;;6.00;;
36221;SDS011;22266;52.340;4.962;2023-08-06T07:34:00;6.67;;;5.33;;
36221;SDS011;22266;52.340;4.962;2023-08-06T07:36:27;11.33;;;7.00;;
36221;SDS011;22266;52.340;4.962;2023-08-06T07:38:53;4.67;;;4.00;;
36221;SDS011;22266;52.340;4.962;2023-08-06T07:41:23;6.00;;;4.00;;
36221;SDS011;22266;52.340;4.962;2023-08-06T07:43:49;5.00;;;5.00;;
36221;SDS011;22266;52.340;4.962;2023-08-06T07:46:16;5.00;;;5.00;;
36221;SDS011;22266;52.340;4.962;2023-08-06T07:48:42;5.00;;;5.00;;
36221;SDS011;22266;52.340;4.962;2023-08-06T07:51:09;6.00;;;5.33;;
36221;SDS011;22266;52.340;4.962;2023-08-06T07:53:35;6.67;;;4.67;;
36221;SDS011;22266;52.340;4.962;2023-08-06T07:56:02;6.00;;;5.00;;
36221;SDS011;22266;52.340;4.962;2023-08-06T07:58:28;6.00;;;6.00;;
36221;SDS011;22266;52.340;4.962;2023-08-06T08:00:56;3.67;;;3.67;;
36221;SDS011;22266;52.340;4.962;2023-08-06T08:03:22;4.33;;;4.00;;
36221;SDS011;22266;52.340;4.962;2023-08-06T08:05:49;8.00;;;6.00;;
36221;SDS011;22266;52.340;4.962;2023-08-06T08:08:15;5.33;;;5.33;;
36221;SDS011;22266;52.340;4.962;2023-08-06T08:10:42;8.33;;;5.33;;
36221;SDS011;22266;52.340;4.962;2023-08-06T08:13:08;5.00;;;5.00;;
36221;SDS011;22266;52.340;4.962;2023-08-06T08:15:36;3.00;;;3.00;;
36221;SDS011;22266;52.340;4.962;2023-08-06T08:18:02;7.00;;;7.00;;
36221;SDS011;22266;52.340;4.962;2023-08-06T08:20:29;5.33;;;5.33;;
36221;SDS011;22266;52.340;4.962;2023-08-06T08:22:59;5.33;;;4.33;;
36221;SDS011;22266;52.340;4.962;2023-08-06T08:25:26;4.67;;;4.67;;
36221;SDS011;22266;52.340;4.962;2023-08-06T08:27:57;6.00;;;5.00;;
36221;SDS011;22266;52.340;4.962;2023-08-06T08:30:23;8.00;;;8.00;;
36221;SDS011;22266;52.340;4.962;2023-08-06T08:32:51;7.67;;;7.00;;
36221;SDS011;22266;52.340;4.962;2023-08-06T08:35:18;5.00;;;5.00;;
36221;SDS011;22266;52.340;4.962;2023-08-06T08:37:44;8.00;;;7.00;;
36221;SDS011;22266;52.340;4.962;2023-08-06T08:40:11;7.67;;;7.67;;
36221;SDS011;22266;52.340;4.962;2023-08-06T08:42:38;7.00;;;7.00;;
36221;SDS011;22266;52.340;4.962;2023-08-06T08:45:04;7.00;;;7.00;;
36221;SDS011;22266;52.340;4.962;2023-08-06T08:47:37;8.33;;;7.33;;
36221;SDS011;22266;52.340;4.962;2023-08-06T08:50:05;6.33;;;5.67;;
36221;SDS011;22266;52.340;4.962;2023-08-06T08:52:33;8.67;;;7.00;;
36221;SDS011;22266;52.340;4.962;2023-08-06T08:55:01;10.00;;;10.00;;
36221;SDS011;22266;52.340;4.962;2023-08-06T08:57:28;9.00;;;8.00;;
36221;SDS011;22266;52.340;4.962;2023-08-06T08:59:55;7.00;;;7.00;;
36221;SDS011;22266;52.340;4.962;2023-08-06T09:02:21;5.00;;;5.00;;
36221;SDS011;22266;52.340;4.962;2023-08-06T09:04:51;6.67;;;6.00;;
36221;SDS011;22266;52.340;4.962;2023-08-06T09:07:19;5.67;;;5.00;;
36221;SDS011;22266;52.340;4.962;2023-08-06T09:09:48;7.67;;;6.67;;
36221;SDS011;22266;52.340;4.962;2023-08-06T09:12:16;8.33;;;5.00;;
36221;SDS011;22266;52.340;4.962;2023-08-06T09:14:43;4.67;;;4.67;;
36221;SDS011;22266;52.340;4.962;2023-08-06T09:17:09;7.00;;;6.33;;
36221;SDS011;22266;52.340;4.962;2023-08-06T09:19:37;6.00;;;5.00;;
36221;SDS011;22266;52.340;4.962;2023-08-06T09:22:03;3.33;;;3.33;;
36221;SDS011;22266;52.340;4.962;2023-08-06T09:24:38;7.00;;;3.00;;
36221;SDS011;22266;52.340;4.962;2023-08-06T09:27:08;5.67;;;3.00;;
36221;SDS011;22266;52.340;4.962;2023-08-06T09:29:39;6.33;;;4.33;;
36221;SDS011;22266;52.340;4.962;2023-08-06T09:32:07;2.33;;;2.00;;
36221;SDS011;22266;52.340;4.962;2023-08-06T09:34:34;3.00;;;3.00;;
36221;SDS011;22266;52.340;4.962;2023-08-06T09:37:00;3.33;;;3.33;;
36221;SDS011;22266;52.340;4.962;2023-08-06T09:39:28;3.67;;;2.00;;
36221;SDS011;22266;52.340;4.962;2023-08-06T09:41:56;7.00;;;4.00;;
36221;SDS011;22266;52.340;4.962;2023-08-06T09:44:24;2.33;;;2.33;;
36221;SDS011;22266;52.340;4.962;2023-08-06T09:46:56;7.67;;;3.67;;
36221;SDS011;22266;52.340;4.962;2023-08-06T09:49:27;4.00;;;3.67;;
36221;SDS011;22266;52.340;4.962;2023-08-06T09:52:09;2.00;;;2.00;;
36221;SDS011;22266;52.340;4.962;2023-08-06T09:54:37;2.00;;;2.00;;
36221;SDS011;22266;52.340;4.962;2023-08-06T09:57:04;2.00;;;2.00;;
36221;SDS011;22266;52.340;4.962;2023-08-06T09:59:32;5.00;;;4.00;;
36221;SDS011;22266;52.340;4.962;2023-08-06T10:01:59;5.00;;;3.00;;
36221;SDS011;22266;52.340;4.962;2023-08-06T10:04:27;2.33;;;2.00;;
36221;SDS011;22266;52.340;4.962;2023-08-06T10:07:06;2.67;;;2.00;;
36221;SDS011;22266;52.340;4.962;2023-08-06T10:09:33;1.33;;;1.33;;
36221;SDS011;22266;52.340;4.962;2023-08-06T10:12:00;0.00;;;0.00;;
36221;SDS011;22266;52.340;4.962;2023-08-06T10:14:30;2.00;;;2.00;;
36221;SDS011;22266;52.340;4.962;2023-08-06T10:16:59;2.00;;;1.00;;
36221;SDS011;22266;52.340;4.962;2023-08-06T10:19:27;0.50;;;0.50;;
36221;SDS011;22266;52.340;4.962;2023-08-06T10:22:11;1.00;;;1.00;;
36221;SDS011;22266;52.340;4.962;2023-08-06T10:24:49;2.00;;;1.00;;
36221;SDS011;22266;52.340;4.962;2023-08-06T10:29:48;0.00;;;0.00;;
36221;SDS011;22266;52.340;4.962;2023-08-06T10:32:16;0.00;;;0.00;;
36221;SDS011;22266;52.340;4.962;2023-08-06T10:37:24;1.00;;;1.00;;
36221;SDS011;22266;52.340;4.962;2023-08-06T10:40:00;0.25;;;0.25;;
36221;SDS011;22266;52.340;4.962;2023-08-06T10:42:27;0.25;;;0.25;;
36221;SDS011;22266;52.340;4.962;2023-08-06T10:45:11;0.75;;;0.75;;
36221;SDS011;22266;52.340;4.962;2023-08-06T10:47:42;0.75;;;0.75;;
36221;SDS011;22266;52.340;4.962;2023-08-06T10:50:14;0.00;;;0.00;;
36221;SDS011;22266;52.340;4.962;2023-08-06T10:52:45;1.50;;;1.25;;
36221;SDS011;22266;52.340;4.962;2023-08-06T10:55:13;0.25;;;0.00;;
36221;SDS011;22266;52.340;4.962;2023-08-06T10:57:47;1.00;;;1.00;;
36221;SDS011;22266;52.340;4.962;2023-08-06T11:00:14;0.00;;;0.00;;
36221;SDS011;22266;52.340;4.962;2023-08-06T11:02:42;0.25;;;0.25;;
36221;SDS011;22266;52.340;4.962;2023-08-06T11:05:10;0.75;;;0.75;;
36221;SDS011;22266;52.340;4.962;2023-08-06T11:07:37;1.00;;;1.00;;
36221;SDS011;22266;52.340;4.962;2023-08-06T11:10:08;1.25;;;0.00;;
36221;SDS011;22266;52.340;4.962;2023-08-06T11:12:36;1.00;;;1.00;;
36221;SDS011;22266;52.340;4.962;2023-08-06T11:15:03;0.00;;;0.00;;
36221;SDS011;22266;52.340;4.962;2023-08-06T11:17:31;1.75;;;0.50;;
36221;SDS011;22266;52.340;4.962;2023-08-06T11:19:59;0.00;;;0.00;;
36221;SDS011;22266;52.340;4.962;2023-08-06T11:22:26;0.00;;;0.00;;
36221;SDS011;22266;52.340;4.962;2023-08-06T11:24:53;0.00;;;0.00;;
36221;SDS011;22266;52.340;4.962;2023-08-06T11:27:20;0.00;;;0.00;;
36221;SDS011;22266;52.340;4.962;2023-08-06T11:29:46;0.00;;;0.00;;
36221;SDS011;22266;52.340;4.962;2023-08-06T11:32:13;0.00;;;0.00;;
36221;SDS011;22266;52.340;4.962;2023-08-06T11:34:43;1.00;;;1.00;;
36221;SDS011;22266;52.340;4.962;2023-08-06T11:37:09;0.00;;;0.00;;
36221;SDS011;22266;52.340;4.962;2023-08-06T11:39:37;0.00;;;0.00;;
36221;SDS011;22266;52.340;4.962;2023-08-06T11:42:05;1.00;;;1.00;;
36221;SDS011;22266;52.340;4.962;2023-08-06T11:44:33;1.00;;;0.00;;
36221;SDS011;22266;52.340;4.962;2023-08-06T11:47:02;1.00;;;1.00;;
36221;SDS011;22266;52.340;4.962;2023-08-06T11:49:42;0.25;;;0.25;;
36221;SDS011;22266;52.340;4.962;2023-08-06T11:52:13;0.25;;;0.25;;
36221;SDS011;22266;52.340;4.962;2023-08-06T11:54:46;0.75;;;0.00;;
36221;SDS011;22266;52.340;4.962;2023-08-06T11:57:14;1.25;;;1.25;;
36221;SDS011;22266;52.340;4.962;2023-08-06T11:59:43;0.75;;;0.75;;
36221;SDS011;22266;52.340;4.962;2023-08-06T12:02:10;0.50;;;0.50;;
36221;SDS011;22266;52.340;4.962;2023-08-06T12:07:28;1.75;;;1.00;;
36221;SDS011;22266;52.340;4.962;2023-08-06T12:09:55;1.00;;;1.00;;
36221;SDS011;22266;52.340;4.962;2023-08-06T12:12:21;1.00;;;1.00;;
36221;SDS011;22266;52.340;4.962;2023-08-06T12:14:48;1.00;;;1.00;;
36221;SDS011;22266;52.340;4.962;2023-08-06T12:17:15;1.00;;;1.00;;
36221;SDS011;22266;52.340;4.962;2023-08-06T12:19:41;0.25;;;0.25;;
36221;SDS011;22266;52.340;4.962;2023-08-06T12:22:08;0.75;;;0.75;;
36221;SDS011;22266;52.340;4.962;2023-08-06T12:24:34;0.00;;;0.00;;
36221;SDS011;22266;52.340;4.962;2023-08-06T12:27:01;1.00;;;1.00;;
36221;SDS011;22266;52.340;4.962;2023-08-06T12:29:29;1.00;;;1.00;;
36221;SDS011;22266;52.340;4.962;2023-08-06T12:31:55;1.00;;;1.00;;
36221;SDS011;22266;52.340;4.962;2023-08-06T12:34:22;2.50;;;1.50;;
36221;SDS011;22266;52.340;4.962;2023-08-06T12:36:52;2.50;;;1.00;;
36221;SDS011;22266;52.340;4.962;2023-08-06T12:39:19;0.00;;;0.00;;
36221;SDS011;22266;52.340;4.962;2023-08-06T12:41:46;0.00;;;0.00;;
36221;SDS011;22266;52.340;4.962;2023-08-06T12:44:12;0.50;;;0.50;;
36221;SDS011;22266;52.340;4.962;2023-08-06T12:46:38;0.75;;;0.75;;
36221;SDS011;22266;52.340;4.962;2023-08-06T12:49:05;0.25;;;0.25;;
36221;SDS011;22266;52.340;4.962;2023-08-06T12:51:32;1.00;;;1.00;;
36221;SDS011;22266;52.340;4.962;2023-08-06T12:54:00;1.75;;;0.75;;
36221;SDS011;22266;52.340;4.962;2023-08-06T12:56:26;2.00;;;0.00;;
36221;SDS011;22266;52.340;4.962;2023-08-06T12:58:53;1.50;;;1.50;;
36221;SDS011;22266;52.340;4.962;2023-08-06T13:01:19;1.00;;;1.00;;
36221;SDS011;22266;52.340;4.962;2023-08-06T13:03:46;1.00;;;1.00;;
36221;SDS011;22266;52.340;4.962;2023-08-06T13:06:12;0.00;;;0.00;;
36221;SDS011;22266;52.340;4.962;2023-08-06T13:08:39;1.75;;;1.00;;
36221;SDS011;22266;52.340;4.962;2023-08-06T13:11:05;1.00;;;1.00;;
36221;SDS011;22266;52.340;4.962;2023-08-06T13:13:32;1.00;;;1.00;;
36221;SDS011;22266;52.340;4.962;2023-08-06T13:15:58;1.50;;;1.00;;
36221;SDS011;22266;52.340;4.962;2023-08-06T13:18:25;1.75;;;1.75;;
36221;SDS011;22266;52.340;4.962;2023-08-06T13:20:53;0.75;;;0.75;;
36221;SDS011;22266;52.340;4.962;2023-08-06T13:23:20;0.00;;;0.00;;
36221;SDS011;22266;52.340;4.962;2023-08-06T13:25:47;0.00;;;0.00;;
36221;SDS011;22266;52.340;4.962;2023-08-06T13:28:13;1.00;;;1.00;;
36221;SDS011;22266;52.340;4.962;2023-08-06T13:30:40;1.00;;;1.00;;
36221;SDS011;22266;52.340;4.962;2023-08-06T13:33:08;1.00;;;1.00;;
36221;SDS011;22266;52.340;4.962;2023-08-06T13:35:36;1.00;;;1.00;;
36221;SDS011;22266;52.340;4.962;2023-08-06T13:38:02;0.00;;;0.00;;
36221;SDS011;22266;52.340;4.962;2023-08-06T13:40:29;1.00;;;1.00;;
36221;SDS011;22266;52.340;4.962;2023-08-06T13:42:58;1.75;;;1.75;;
36221;SDS011;22266;52.340;4.962;2023-08-06T13:45:24;2.00;;;1.00;;
36221;SDS011;22266;52.340;4.962;2023-08-06T13:47:51;0.75;;;0.75;;
36221;SDS011;22266;52.340;4.962;2023-08-06T13:50:18;1.00;;;1.00;;
36221;SDS011;22266;52.340;4.962;2023-08-06T13:52:45;0.50;;;0.50;;
36221;SDS011;22266;52.340;4.962;2023-08-06T13:55:12;0.50;;;0.50;;
36221;SDS011;22266;52.340;4.962;2023-08-06T13:57:38;2.50;;;2.00;;
36221;SDS011;22266;52.340;4.962;2023-08-06T14:00:05;0.25;;;0.25;;
36221;SDS011;22266;52.340;4.962;2023-08-06T14:02:38;0.00;;;0.00;;
36221;SDS011;22266;52.340;4.962;2023-08-06T14:05:05;0.00;;;0.00;;
36221;SDS011;22266;52.340;4.962;2023-08-06T14:07:32;3.00;;;1.50;;
36221;SDS011;22266;52.340;4.962;2023-08-06T14:09:58;2.25;;;1.00;;
36221;SDS011;22266;52.340;4.962;2023-08-06T14:12:25;0.00;;;0.00;;
36221;SDS011;22266;52.340;4.962;2023-08-06T14:14:51;0.00;;;0.00;;
36221;SDS011;22266;52.340;4.962;2023-08-06T14:17:17;2.00;;;0.75;;
36221;SDS011;22266;52.340;4.962;2023-08-06T14:19:44;1.00;;;0.00;;
36221;SDS011;22266;52.340;4.962;2023-08-06T14:22:11;0.25;;;0.00;;
36221;SDS011;22266;52.340;4.962;2023-08-06T14:24:37;0.00;;;0.00;;
36221;SDS011;22266;52.340;4.962;2023-08-06T14:27:04;0.25;;;0.25;;
36221;SDS011;22266;52.340;4.962;2023-08-06T14:29:32;0.50;;;0.50;;
36221;SDS011;22266;52.340;4.962;2023-08-06T14:31:58;0.25;;;0.00;;
36221;SDS011;22266;52.340;4.962;2023-08-06T14:34:25;0.00;;;0.00;;
36221;SDS011;22266;52.340;4.962;2023-08-06T14:36:51;0.00;;;0.00;;
36221;SDS011;22266;52.340;4.962;2023-08-06T14:39:18;0.00;;;0.00;;
36221;SDS011;22266;52.340;4.962;2023-08-06T14:41:45;0.00;;;0.00;;
36221;SDS011;22266;52.340;4.962;2023-08-06T14:44:11;0.00;;;0.00;;
36221;SDS011;22266;52.340;4.962;2023-08-06T14:46:37;0.00;;;0.00;;
36221;SDS011;22266;52.340;4.962;2023-08-06T14:49:04;1.50;;;0.00;;
36221;SDS011;22266;52.340;4.962;2023-08-06T14:51:31;0.00;;;0.00;;
36221;SDS011;22266;52.340;4.962;2023-08-06T14:53:58;0.00;;;0.00;;
36221;SDS011;22266;52.340;4.962;2023-08-06T14:56:25;0.00;;;0.00;;